Time;durP1;ratioP1;P1;durP2;ratioP2;P2;SDS_P1;SDS_P2;PMS_P1;PMS_P2;Temp;Humidity;BMP_temperature;BMP_pressure;BME280_temperature;BME280_humidity;BME280_pressure;Samples;Min_cycle;Max_cycle;Signal;HPM_P1;HPM_P2
2021/04/02 00:02:04;;;;;;;8.15;2.15;;;8.80;75.10;;;;;;5053450;28;20033;-79
2021/04/02 00:04:30;;;;;;;8.05;2.03;;;8.70;75.40;;;;;;5073061;28;20485;-80
2021/04/02 00:06:55;;;;;;;5.47;1.83;;;8.70;75.50;;;;;;5037057;28;20029;-80
2021/04/02 00:09:21;;;;;;;6.78;2.53;;;8.70;75.70;;;;;;5070307;28;20099;-79
2021/04/02 00:11:47;;;;;;;9.73;2.78;;;8.70;76.20;;;;;;5074326;28;20090;-79
2021/04/02 00:14:13;;;;;;;11.27;2.30;;;8.60;75.50;;;;;;5060400;28;20043;-78
2021/04/02 00:16:38;;;;;;;7.80;2.13;;;8.60;75.90;;;;;;5073414;28;20020;-78
2021/04/02 00:19:04;;;;;;;5.95;2.30;;;8.60;75.90;;;;;;5073237;28;20020;-79
2021/04/02 00:21:30;;;;;;;8.73;2.30;;;8.50;76.00;;;;;;5067996;28;20036;-79
2021/04/02 00:23:56;;;;;;;9.30;2.40;;;8.50;76.00;;;;;;5064219;28;20461;-78
2021/04/02 00:26:24;;;;;;;8.05;2.38;;;8.50;76.60;;;;;;5072553;28;20067;-78
2021/04/02 00:28:55;;;;;;;7.22;2.33;;;8.40;76.20;;;;;;5056419;28;20473;-79
2021/04/02 00:31:20;;;;;;;;;;;8.40;76.30;;;;;;5072625;28;20473;-80
2021/04/02 00:33:46;;;;;;;7.32;2.17;;;8.30;76.70;;;;;;5072348;28;19913;-80
2021/04/02 00:36:12;;;;;;;8.32;2.63;;;8.30;76.80;;;;;;5062220;28;20013;-80
2021/04/02 00:38:38;;;;;;;11.00;2.40;;;8.20;76.80;;;;;;5056136;28;20055;-80
2021/04/02 00:41:09;;;;;;;9.18;2.97;;;8.20;77.00;;;;;;5072859;28;20032;-79
2021/04/02 00:43:40;;;;;;;6.40;2.15;;;8.20;77.00;;;;;;5061470;28;20081;-79
2021/04/02 00:46:08;;;;;;;7.82;2.53;;;8.10;77.20;;;;;;5070567;28;20456;-79
2021/04/02 00:48:34;;;;;;;7.10;2.40;;;8.10;77.30;;;;;;5063945;28;20025;-79
2021/04/02 00:51:08;;;;;;;7.40;2.20;;;8.00;77.40;;;;;;5052445;28;20056;-79
2021/04/02 00:53:38;;;;;;;7.97;2.40;;;8.00;77.60;;;;;;5052417;28;20531;-79
2021/04/02 00:56:05;;;;;;;7.55;2.42;;;7.90;77.60;;;;;;5067660;28;20024;-80
2021/04/02 00:58:32;;;;;;;10.38;3.10;;;7.90;78.00;;;;;;5040126;28;20059;-79
2021/04/02 01:00:59;;;;;;;5.55;2.13;;;7.90;78.30;;;;;;5067688;28;20024;-79
2021/04/02 01:03:25;;;;;;;12.15;2.38;;;7.80;78.30;;;;;;5059116;28;20091;-79
2021/04/02 01:05:53;;;;;;;5.93;2.33;;;7.80;78.50;;;;;;5060290;28;20492;-79
2021/04/02 01:08:25;;;;;;;9.38;2.40;;;7.80;78.30;;;;;;5072053;28;20060;-79
2021/04/02 01:10:54;;;;;;;7.70;2.35;;;7.70;78.70;;;;;;5061699;28;20075;-79
2021/04/02 01:13:41;;;;;;;7.22;2.47;;;7.70;78.80;;;;;;5051798;28;20040;-79
2021/04/02 01:16:19;;;;;;;8.80;3.17;;;7.70;78.80;;;;;;5064405;28;20066;-80
2021/04/02 01:18:57;;;;;;;5.40;2.20;;;7.70;78.90;;;;;;5053474;28;20536;-80
2021/04/02 01:21:29;;;;;;;7.18;2.20;;;7.70;79.20;;;;;;5067026;28;20027;-79
2021/04/02 01:24:01;;;;;;;8.57;2.50;;;7.60;79.40;;;;;;5056014;28;20150;-79
2021/04/02 01:27:04;;;;;;;6.35;2.00;;;7.60;79.30;;;;;;5070671;28;20037;-79
2021/04/02 01:29:54;;;;;;;8.27;2.58;;;7.60;79.60;;;;;;5072967;28;20516;-80
2021/04/02 01:32:28;;;;;;;8.32;2.70;;;7.60;79.50;;;;;;5084982;28;20017;-79
2021/04/02 01:34:58;;;;;;;6.10;2.08;;;7.50;79.40;;;;;;5070745;28;20112;-79
2021/04/02 01:37:33;;;;;;;6.40;2.08;;;7.50;79.50;;;;;;5086185;28;20025;-86
2021/04/02 01:40:02;;;;;;;11.18;2.42;;;7.40;79.80;;;;;;5072621;28;20025;-79
2021/04/02 01:42:29;;;;;;;6.45;2.10;;;7.40;80.00;;;;;;5070027;28;20017;-80
2021/04/02 01:44:56;;;;;;;6.55;2.17;;;7.40;80.80;;;;;;5061546;28;20162;-80
2021/04/02 01:47:24;;;;;;;8.43;2.53;;;7.40;80.10;;;;;;5065443;28;20122;-80
2021/04/02 01:49:53;;;;;;;5.55;2.20;;;7.30;79.80;;;;;;5061530;28;20063;-79
2021/04/02 01:52:22;;;;;;;6.22;2.08;;;7.30;79.90;;;;;;5056154;28;20097;-80
2021/04/02 01:54:49;;;;;;;7.53;2.05;;;7.20;80.10;;;;;;5059211;28;20028;-79
2021/04/02 01:57:16;;;;;;;6.90;1.90;;;7.20;80.60;;;;;;5051548;28;20026;-79
2021/04/02 01:59:43;;;;;;;6.05;1.90;;;7.20;80.40;;;;;;5057030;28;20500;-79
2021/04/02 02:02:09;;;;;;;5.38;1.92;;;7.20;80.50;;;;;;5060668;28;20063;-79
2021/04/02 02:04:36;;;;;;;5.50;2.03;;;7.20;80.80;;;;;;5052193;28;20153;-78
2021/04/02 02:07:03;;;;;;;5.00;1.60;;;7.10;80.60;;;;;;5071362;28;20020;-80
2021/04/02 02:09:33;;;;;;;10.60;2.85;;;7.10;80.60;;;;;;5056816;28;20032;-79
2021/04/02 02:12:01;;;;;;;6.10;2.10;;;7.10;80.70;;;;;;5063337;28;20127;-79
2021/04/02 02:14:30;;;;;;;7.22;1.90;;;7.10;81.00;;;;;;5050995;28;20043;-79
2021/04/02 02:17:00;;;;;;;6.50;2.22;;;7.10;81.10;;;;;;5060234;28;20040;-79
2021/04/02 02:19:27;;;;;;;8.73;1.95;;;7.10;80.90;;;;;;5072038;28;20364;-79
2021/04/02 02:21:56;;;;;;;8.63;2.13;;;7.00;81.10;;;;;;5064387;28;20379;-79
2021/04/02 02:24:24;;;;;;;6.50;1.83;;;7.00;81.10;;;;;;5065127;28;20036;-79
2021/04/02 02:26:50;;;;;;;7.70;2.10;;;7.00;80.80;;;;;;5049281;28;20055;-79
2021/04/02 02:29:15;;;;;;;5.85;1.58;;;7.00;81.10;;;;;;5051924;28;20029;-80
2021/04/02 02:31:41;;;;;;;8.07;2.25;;;6.90;81.20;;;;;;5050561;28;20412;-79
2021/04/02 02:34:08;;;;;;;6.32;1.50;;;6.90;81.30;;;;;;5043550;28;20040;-79
2021/04/02 02:36:34;;;;;;;5.20;1.58;;;6.90;81.30;;;;;;5057863;28;20036;-80
2021/04/02 02:39:00;;;;;;;8.00;1.70;;;6.90;81.50;;;;;;5046900;28;20025;-80
2021/04/02 02:41:28;;;;;;;6.78;1.90;;;6.90;81.90;;;;;;5064176;28;20025;-79
2021/04/02 02:43:55;;;;;;;3.63;1.58;;;6.90;82.00;;;;;;5052198;28;20029;-80
2021/04/02 02:46:23;;;;;;;6.55;2.03;;;6.90;81.40;;;;;;5062454;28;20083;-81
2021/04/02 02:48:53;;;;;;;5.85;1.75;;;6.80;81.40;;;;;;5065794;28;20555;-79
2021/04/02 02:51:21;;;;;;;6.93;1.87;;;6.80;81.60;;;;;;5057623;28;20464;-79
2021/04/02 02:53:48;;;;;;;7.72;2.00;;;6.80;81.70;;;;;;5071538;28;20115;-79
2021/04/02 02:56:15;;;;;;;7.90;1.90;;;6.80;81.80;;;;;;5056271;28;20028;-79
2021/04/02 02:58:42;;;;;;;8.95;2.13;;;6.70;82.10;;;;;;5061118;28;20472;-80
2021/04/02 03:01:11;;;;;;;5.45;1.60;;;6.70;82.20;;;;;;5065968;28;20044;-79
2021/04/02 03:03:37;;;;;;;6.78;1.65;;;6.70;82.50;;;;;;5058182;28;20133;-79
2021/04/02 03:06:07;;;;;;;5.95;1.75;;;6.70;82.60;;;;;;5056941;28;20072;-79
2021/04/02 03:08:42;;;;;;;4.85;1.48;;;6.70;82.80;;;;;;5062891;28;20025;-79
2021/04/02 03:11:11;;;;;;;5.95;1.77;;;6.70;82.70;;;;;;5070532;28;20022;-79
2021/04/02 03:13:38;;;;;;;6.43;1.50;;;6.70;82.90;;;;;;5057623;28;20029;-79
2021/04/02 03:16:05;;;;;;;5.38;1.73;;;6.70;83.00;;;;;;5050090;28;20017;-80
2021/04/02 03:18:32;;;;;;;6.03;1.80;;;6.70;83.00;;;;;;5050079;28;20894;-79
2021/04/02 03:20:59;;;;;;;8.48;2.05;;;6.70;83.20;;;;;;5053626;28;20033;-82
2021/04/02 03:23:25;;;;;;;5.93;1.70;;;6.70;83.20;;;;;;5061191;28;20044;-80
2021/04/02 03:25:51;;;;;;;7.35;1.75;;;6.60;83.00;;;;;;5066175;28;20032;-80
2021/04/02 03:28:18;;;;;;;5.20;1.63;;;6.70;83.50;;;;;;5071499;28;20009;-80
2021/04/02 03:30:46;;;;;;;6.10;1.60;;;6.60;83.60;;;;;;5058035;28;20184;-81
2021/04/02 03:33:22;;;;;;;4.95;1.65;;;6.60;83.70;;;;;;5069157;28;20469;-79
2021/04/02 03:35:52;;;;;;;4.50;1.73;;;6.60;83.90;;;;;;5071365;28;20025;-79
2021/04/02 03:38:19;;;;;;;6.43;2.00;;;6.60;83.90;;;;;;5055890;28;20370;-81
2021/04/02 03:40:48;;;;;;;6.25;1.88;;;6.60;84.10;;;;;;5069893;28;20465;-79
2021/04/02 03:43:14;;;;;;;6.43;1.90;;;6.60;84.10;;;;;;5066482;28;20033;-79
2021/04/02 03:45:45;;;;;;;6.57;2.10;;;6.60;84.30;;;;;;5059428;28;20388;-79
2021/04/02 03:48:13;;;;;;;8.00;2.20;;;6.50;84.40;;;;;;5056880;28;20036;-80
2021/04/02 03:50:43;;;;;;;6.50;2.08;;;6.60;84.50;;;;;;5062719;28;20293;-79
2021/04/02 03:53:32;;;;;;;5.03;1.98;;;6.50;84.50;;;;;;5066051;28;20033;-78
2021/04/02 03:56:01;;;;;;;4.40;2.05;;;6.50;84.80;;;;;;5071358;28;20063;-78
2021/04/02 03:58:29;;;;;;;5.05;1.92;;;6.50;85.00;;;;;;5068465;28;20028;-79
2021/04/02 04:01:00;;;;;;;5.63;1.98;;;6.50;85.00;;;;;;5058857;28;20453;-79
2021/04/02 04:03:26;;;;;;;6.03;2.22;;;6.50;85.30;;;;;;5068843;28;20040;-79
2021/04/02 04:05:55;;;;;;;5.25;2.30;;;6.50;85.30;;;;;;5058177;28;20094;-80
2021/04/02 04:08:23;;;;;;;7.10;1.95;;;6.50;85.30;;;;;;5060112;28;20388;-79
2021/04/02 04:10:50;;;;;;;5.85;2.47;;;6.40;85.30;;;;;;5072812;28;20496;-80
2021/04/02 04:13:18;;;;;;;10.70;2.60;;;6.40;85.60;;;;;;5073300;28;20492;-80
2021/04/02 04:15:44;;;;;;;9.90;2.55;;;6.40;85.60;;;;;;5057632;28;20473;-80
2021/04/02 04:18:13;;;;;;;7.43;2.50;;;6.40;85.80;;;;;;5049769;28;20035;-80
2021/04/02 04:20:41;;;;;;;9.27;3.22;;;6.40;85.80;;;;;;5072863;28;20013;-79
2021/04/02 04:23:07;;;;;;;9.07;3.13;;;6.40;85.80;;;;;;5074622;28;20035;-80
2021/04/02 04:25:34;;;;;;;7.75;2.95;;;6.40;86.10;;;;;;5063754;28;20032;-79
2021/04/02 04:28:02;;;;;;;7.63;2.60;;;6.40;86.20;;;;;;5054577;28;20029;-79
2021/04/02 04:30:29;;;;;;;7.60;2.30;;;6.40;86.20;;;;;;5066550;28;20013;-80
2021/04/02 04:32:57;;;;;;;8.30;2.30;;;6.40;86.40;;;;;;5052740;28;20029;-81
2021/04/02 04:35:24;;;;;;;6.68;2.88;;;6.30;86.30;;;;;;5053283;28;20029;-79
2021/04/02 04:37:51;;;;;;;7.13;2.40;;;6.30;86.50;;;;;;5065279;28;20028;-79
2021/04/02 04:40:20;;;;;;;6.22;2.60;;;6.30;86.60;;;;;;5051823;28;20079;-79
2021/04/02 04:42:47;;;;;;;7.72;2.80;;;6.30;86.50;;;;;;5053658;28;20131;-80
2021/04/02 04:45:24;;;;;;;6.80;2.50;;;6.30;86.70;;;;;;5052828;28;20035;-79
2021/04/02 04:47:50;;;;;;;7.75;2.45;;;6.30;86.50;;;;;;5052733;28;20025;-79
2021/04/02 04:50:16;;;;;;;9.80;3.13;;;6.30;86.70;;;;;;5067122;28;20123;-79
2021/04/02 04:53:16;;;;;;;7.85;2.60;;;6.30;86.90;;;;;;5054061;28;20087;-79
2021/04/02 04:55:44;;;;;;;7.15;2.58;;;6.30;86.80;;;;;;5072376;28;20479;-80
2021/04/02 04:58:13;;;;;;;6.45;2.58;;;6.30;86.80;;;;;;5073858;28;20036;-79
2021/04/02 05:00:42;;;;;;;8.90;2.83;;;6.20;86.80;;;;;;5070059;28;20025;-79
2021/04/02 05:03:11;;;;;;;8.95;2.80;;;6.20;86.90;;;;;;5052847;28;20043;-82
2021/04/02 05:05:39;;;;;;;8.55;2.33;;;6.20;87.00;;;;;;5051993;28;20107;-79
2021/04/02 05:08:06;;;;;;;8.75;2.47;;;6.20;87.30;;;;;;5062600;28;20021;-79
2021/04/02 05:10:35;;;;;;;7.18;2.75;;;6.20;87.00;;;;;;5062115;28;20027;-83
2021/04/02 05:13:02;;;;;;;9.45;2.50;;;6.20;86.90;;;;;;5096832;28;20032;-85
2021/04/02 05:15:28;;;;;;;8.10;2.50;;;6.10;86.90;;;;;;5075077;28;20033;-79
2021/04/02 05:17:55;;;;;;;7.90;2.72;;;6.10;87.10;;;;;;5073480;28;20431;-80
2021/04/02 05:20:38;;;;;;;9.35;2.67;;;6.10;87.20;;;;;;5082748;28;20040;-87
2021/04/02 05:23:04;;;;;;;7.28;2.30;;;6.10;87.30;;;;;;5081878;28;20021;-85
2021/04/02 05:25:29;;;;;;;7.57;2.30;;;6.10;87.30;;;;;;5050292;28;20164;-80
2021/04/02 05:27:55;;;;;;;10.13;2.72;;;6.00;87.60;;;;;;5071521;28;20469;-81
2021/04/02 05:30:21;;;;;;;7.07;2.33;;;6.10;87.60;;;;;;5054719;28;20033;-81
2021/04/02 05:32:47;;;;;;;5.20;2.10;;;6.10;87.70;;;;;;5069469;28;20467;-79
2021/04/02 05:35:13;;;;;;;8.02;2.42;;;6.10;87.70;;;;;;5038281;28;20029;-79
2021/04/02 05:37:39;;;;;;;10.60;2.72;;;6.10;87.70;;;;;;5044353;28;20086;-84
2021/04/02 05:40:05;;;;;;;8.70;2.33;;;6.10;87.80;;;;;;5071695;28;20028;-79
2021/04/02 05:42:33;;;;;;;6.63;2.80;;;6.10;87.80;;;;;;5072609;28;20036;-78
2021/04/02 05:45:00;;;;;;;6.90;2.40;;;6.10;88.00;;;;;;5038168;28;20036;-79
2021/04/02 05:47:26;;;;;;;8.00;2.40;;;6.00;87.90;;;;;;5045355;28;20031;-80
2021/04/02 05:49:54;;;;;;;8.38;2.63;;;6.00;88.00;;;;;;5055136;28;20029;-78
2021/04/02 05:52:21;;;;;;;9.07;2.50;;;6.10;88.10;;;;;;5072840;28;20020;-79
2021/04/02 05:54:48;;;;;;;5.80;2.15;;;6.10;88.20;;;;;;5071242;28;20485;-80
2021/04/02 05:57:15;;;;;;;9.63;2.47;;;6.10;88.10;;;;;;5067076;28;20043;-79
2021/04/02 05:59:43;;;;;;;10.73;2.35;;;6.00;88.00;;;;;;5052138;28;20490;-87
2021/04/02 06:02:13;;;;;;;7.68;2.33;;;6.00;88.10;;;;;;5054188;28;20055;-79
2021/04/02 06:04:39;;;;;;;10.00;2.30;;;6.00;88.20;;;;;;5052728;28;20106;-79
2021/04/02 06:07:05;;;;;;;7.03;2.58;;;6.00;88.20;;;;;;5043816;28;20135;-79
2021/04/02 06:09:31;;;;;;;4.60;1.80;;;6.00;88.20;;;;;;5044277;28;20025;-79
2021/04/02 06:11:57;;;;;;;7.30;2.13;;;6.10;88.30;;;;;;5067208;28;20105;-80
2021/04/02 06:14:23;;;;;;;9.52;2.28;;;6.10;88.20;;;;;;5058666;28;20079;-79
2021/04/02 06:16:50;;;;;;;7.47;1.85;;;6.10;88.30;;;;;;5056315;28;20028;-81
2021/04/02 06:19:16;;;;;;;6.05;1.73;;;6.10;88.40;;;;;;5059106;28;20025;-80
2021/04/02 06:21:52;;;;;;;8.20;2.63;;;6.10;88.20;;;;;;5054033;28;20040;-79
2021/04/02 06:24:35;;;;;;;5.47;1.90;;;6.10;88.20;;;;;;5067201;28;20059;-80
2021/04/02 06:27:03;;;;;;;8.57;2.60;;;6.10;88.20;;;;;;5071370;28;20357;-80
2021/04/02 06:29:30;;;;;;;7.03;2.03;;;6.10;88.10;;;;;;5070373;28;20103;-80
2021/04/02 06:31:56;;;;;;;7.43;2.03;;;6.10;88.10;;;;;;5070714;28;20024;-79
2021/04/02 06:34:26;;;;;;;6.28;2.33;;;6.10;88.10;;;;;;5050819;28;20033;-79
2021/04/02 06:36:59;;;;;;;6.23;1.93;;;6.10;88.20;;;;;;5053530;28;20021;-80
2021/04/02 06:39:30;;;;;;;8.68;2.03;;;6.20;88.10;;;;;;5071215;28;20035;-78
2021/04/02 06:41:58;;;;;;;9.50;2.85;;;6.20;88.10;;;;;;5054304;28;20052;-78
2021/04/02 06:44:27;;;;;;;4.43;1.42;;;6.20;88.10;;;;;;5072611;28;20035;-79
2021/04/02 06:46:56;;;;;;;6.80;1.75;;;6.30;88.00;;;;;;5070926;28;20435;-79
2021/04/02 06:49:22;;;;;;;5.28;1.63;;;6.30;87.90;;;;;;5071550;28;20208;-79
2021/04/02 06:51:50;;;;;;;7.30;1.58;;;6.30;87.80;;;;;;5072603;28;20433;-79
2021/04/02 06:54:18;;;;;;;10.38;2.20;;;6.40;87.80;;;;;;5071541;28;20048;-78
2021/04/02 06:57:05;;;;;;;4.90;1.65;;;6.40;87.80;;;;;;5072365;28;20089;-78
2021/04/02 06:59:35;;;;;;;12.70;3.97;;;6.40;87.70;;;;;;5050802;28;20123;-79
2021/04/02 07:02:03;;;;;;;9.73;2.43;;;6.50;87.60;;;;;;5063728;28;20457;-79
2021/04/02 07:04:31;;;;;;;6.55;2.08;;;6.50;87.50;;;;;;5071693;28;20056;-78
2021/04/02 07:06:58;;;;;;;9.63;1.95;;;6.50;87.40;;;;;;5070227;28;20067;-79
2021/04/02 07:09:27;;;;;;;8.60;1.70;;;6.50;87.30;;;;;;5070155;28;20029;-79
2021/04/02 07:11:59;;;;;;;4.60;1.80;;;6.60;87.20;;;;;;5070389;28;20028;-78
2021/04/02 07:14:26;;;;;;;6.03;1.83;;;6.60;87.10;;;;;;5068781;28;20029;-78
2021/04/02 07:16:52;;;;;;;7.65;1.88;;;6.60;86.90;;;;;;5042780;28;20033;-86
2021/04/02 07:19:18;;;;;;;8.15;1.65;;;6.70;86.80;;;;;;5035835;28;20058;-78
2021/04/02 07:21:44;;;;;;;5.82;1.38;;;6.70;86.30;;;;;;5053236;28;20020;-79
2021/04/02 07:24:11;;;;;;;5.47;1.50;;;6.80;86.40;;;;;;5050217;28;20488;-80
2021/04/02 07:26:37;;;;;;;8.65;1.67;;;6.80;86.20;;;;;;5051555;28;20025;-79
2021/04/02 07:29:03;;;;;;;8.07;1.95;;;6.90;86.20;;;;;;5056887;28;20071;-86
2021/04/02 07:31:30;;;;;;;8.20;1.88;;;6.90;86.00;;;;;;5056501;28;20354;-78
2021/04/02 07:33:57;;;;;;;5.78;1.70;;;7.00;85.90;;;;;;5049938;28;20029;-79
2021/04/02 07:36:25;;;;;;;7.95;1.80;;;7.00;85.70;;;;;;5034306;28;20032;-79
2021/04/02 07:38:52;;;;;;;4.95;1.60;;;7.00;85.20;;;;;;5059329;28;20029;-78
2021/04/02 07:41:19;;;;;;;8.15;1.63;;;7.00;85.10;;;;;;5067032;28;20035;-79
2021/04/02 07:43:58;;;;;;;11.13;2.28;;;7.00;84.90;;;;;;5042683;28;20110;-80
2021/04/02 07:46:30;;;;;;;8.50;1.83;;;7.10;84.50;;;;;;5037640;28;20037;-79
2021/04/02 07:49:04;;;;;;;6.80;1.90;;;7.10;84.50;;;;;;5060301;28;20389;-78
2021/04/02 07:51:50;;;;;;;8.15;1.95;;;7.10;84.10;;;;;;5058408;28;20025;-78
2021/04/02 07:54:29;;;;;;;7.97;1.40;;;7.10;84.20;;;;;;5064944;28;20484;-79
2021/04/02 07:56:56;;;;;;;4.80;1.50;;;7.10;84.20;;;;;;5072362;28;20032;-80
2021/04/02 07:59:47;;;;;;;8.10;1.70;;;7.20;84.30;;;;;;5073354;28;20439;-79
2021/04/02 08:02:15;;;;;;;5.82;1.77;;;7.20;84.10;;;;;;5064706;28;20051;-80
2021/04/02 08:04:53;;;;;;;8.43;2.08;;;7.30;84.10;;;;;;5057737;28;20053;-79
2021/04/02 08:07:36;;;;;;;6.45;1.40;;;7.40;84.10;;;;;;5073318;28;20087;-80
2021/04/02 08:10:07;;;;;;;4.22;1.50;;;7.50;83.80;;;;;;5072873;28;20032;-79
2021/04/02 08:12:33;;;;;;;6.68;1.38;;;7.60;83.80;;;;;;5074599;28;20024;-87
2021/04/02 08:15:08;;;;;;;7.15;1.73;;;7.80;83.30;;;;;;5071812;28;20032;-89
2021/04/02 08:17:35;;;;;;;5.22;1.55;;;7.90;83.20;;;;;;5070412;28;20415;-87
2021/04/02 08:20:24;;;;;;;9.68;1.88;;;8.00;83.00;;;;;;5070618;28;20050;-86
2021/04/02 08:22:51;;;;;;;7.00;1.55;;;8.20;82.80;;;;;;5054766;28;20028;-87
2021/04/02 08:25:18;;;;;;;5.95;1.40;;;8.40;82.30;;;;;;5071008;28;20117;-86
2021/04/02 08:27:46;;;;;;;6.47;1.25;;;8.50;81.60;;;;;;5073479;28;20483;-86
2021/04/02 08:30:15;;;;;;;7.57;1.58;;;8.60;80.60;;;;;;5056102;28;20033;-86
2021/04/02 08:32:49;;;;;;;7.50;1.83;;;8.70;80.40;;;;;;5067664;28;20028;-87
2021/04/02 08:35:17;;;;;;;5.60;1.60;;;8.70;79.60;;;;;;5053242;28;20021;-88
2021/04/02 08:38:05;;;;;;;6.60;1.60;;;8.80;79.50;;;;;;5037155;28;20465;-86
2021/04/02 08:40:38;;;;;;;5.88;1.85;;;8.80;79.10;;;;;;5066456;28;20024;-87
2021/04/02 08:43:07;;;;;;;7.07;2.00;;;8.80;78.30;;;;;;5073181;28;20135;-86
2021/04/02 08:45:38;;;;;;;6.18;1.63;;;8.90;78.40;;;;;;5073586;28;20034;-87
2021/04/02 08:48:05;;;;;;;4.20;1.50;;;8.90;78.40;;;;;;5059580;28;20373;-89
2021/04/02 08:50:31;;;;;;;7.82;2.53;;;8.90;78.30;;;;;;5071752;28;20045;-87
2021/04/02 08:53:10;;;;;;;7.30;2.15;;;8.90;78.20;;;;;;5088600;28;20024;-89
2021/04/02 08:55:36;;;;;;;8.43;1.70;;;9.00;77.70;;;;;;5087883;28;20115;-89
2021/04/02 08:58:07;;;;;;;5.50;2.13;;;9.00;77.00;;;;;;5079200;28;20029;-89
2021/04/02 09:00:36;;;;;;;8.50;1.77;;;9.00;77.60;;;;;;5081744;28;20092;-89
2021/04/02 09:03:08;;;;;;;6.60;1.98;;;9.10;77.90;;;;;;5086992;28;20050;-89
2021/04/02 09:05:34;;;;;;;4.35;1.70;;;9.10;76.90;;;;;;5077893;28;20116;-87
2021/04/02 09:08:00;;;;;;;7.00;2.20;;;9.20;77.40;;;;;;5066503;28;20025;-79
2021/04/02 09:10:26;;;;;;;5.85;1.65;;;9.30;77.40;;;;;;5066671;28;20056;-79
2021/04/02 09:12:54;;;;;;;5.72;1.90;;;9.30;77.20;;;;;;5052330;28;20452;-79
2021/04/02 09:15:26;;;;;;;7.65;1.90;;;9.40;77.30;;;;;;5057445;28;20028;-80
2021/04/02 09:17:52;;;;;;;6.05;1.80;;;9.40;77.30;;;;;;5060785;28;20052;-82
2021/04/02 09:20:19;;;;;;;6.50;1.67;;;9.50;76.30;;;;;;5070671;28;20060;-79
2021/04/02 09:22:45;;;;;;;11.05;1.95;;;9.50;75.60;;;;;;5052536;28;20025;-80
2021/04/02 09:25:17;;;;;;;5.63;1.63;;;9.50;75.80;;;;;;5070401;28;20020;-79
2021/04/02 09:27:43;;;;;;;6.38;2.33;;;9.50;74.70;;;;;;5074049;28;20032;-79
2021/04/02 09:30:09;;;;;;;6.93;1.75;;;9.50;74.40;;;;;;5055719;28;20024;-79
2021/04/02 09:32:35;;;;;;;6.43;1.70;;;9.50;73.30;;;;;;5073733;28;20029;-80
2021/04/02 09:35:04;;;;;;;8.70;2.03;;;9.50;73.90;;;;;;5072603;28;20075;-80
2021/04/02 09:37:30;;;;;;;7.57;1.75;;;9.60;74.20;;;;;;5072328;28;20473;-79
2021/04/02 09:39:58;;;;;;;9.82;2.03;;;9.60;73.60;;;;;;5072566;28;20465;-78
2021/04/02 09:42:26;;;;;;;8.15;1.75;;;9.50;73.50;;;;;;5073642;28;20024;-83
2021/04/02 09:44:51;;;;;;;8.02;1.92;;;9.50;72.40;;;;;;5062178;28;20024;-80
2021/04/02 09:47:17;;;;;;;7.18;2.25;;;9.60;73.00;;;;;;5042992;28;20381;-79
2021/04/02 09:49:44;;;;;;;8.68;1.70;;;9.60;72.90;;;;;;5057684;28;20029;-79
2021/04/02 09:52:10;;;;;;;7.50;2.20;;;9.60;72.20;;;;;;5052115;28;20029;-79
2021/04/02 09:54:37;;;;;;;9.10;2.30;;;9.50;71.80;;;;;;5068556;28;20119;-78
2021/04/02 09:57:07;;;;;;;9.30;2.22;;;9.60;72.10;;;;;;5045846;28;20496;-79
2021/04/02 09:59:34;;;;;;;7.35;2.67;;;9.50;71.70;;;;;;5058153;28;20484;-79
2021/04/02 10:01:59;;;;;;;8.82;2.70;;;9.60;72.50;;;;;;5071721;28;20024;-79
2021/04/02 10:04:26;;;;;;;15.45;3.03;;;9.60;73.10;;;;;;5062590;28;20556;-79
2021/04/02 10:06:52;;;;;;;8.32;3.00;;;9.60;73.10;;;;;;5072787;28;20045;-79
2021/04/02 10:09:18;;;;;;;9.80;3.40;;;9.70;73.60;;;;;;5054561;28;20054;-79
2021/04/02 10:11:45;;;;;;;8.27;3.72;;;9.70;73.30;;;;;;5071355;28;20464;-80
2021/04/02 10:14:12;;;;;;;7.97;3.10;;;9.80;73.40;;;;;;5071798;28;20457;-79
2021/04/02 10:16:39;;;;;;;10.63;3.15;;;9.80;73.60;;;;;;5071117;28;20520;-79
2021/04/02 10:19:05;;;;;;;11.25;2.80;;;9.90;73.60;;;;;;5068653;28;20031;-79
2021/04/02 10:21:32;;;;;;;6.38;2.50;;;9.90;72.00;;;;;;5042495;28;20086;-79
2021/04/02 10:23:59;;;;;;;8.25;3.22;;;9.90;71.10;;;;;;5070884;28;20374;-80
2021/04/02 10:26:25;;;;;;;14.00;2.55;;;9.90;72.30;;;;;;5055124;28;20032;-79
2021/04/02 10:28:51;;;;;;;8.38;3.13;;;10.00;72.00;;;;;;5071491;28;20032;-80
2021/04/02 10:31:17;;;;;;;5.88;1.77;;;10.00;71.30;;;;;;5052866;28;20021;-78
2021/04/02 10:33:42;;;;;;;6.43;1.80;;;10.10;72.00;;;;;;5072889;28;20081;-78
2021/04/02 10:36:08;;;;;;;9.48;2.60;;;10.20;72.20;;;;;;5064867;28;20115;-79
2021/04/02 10:38:34;;;;;;;8.23;2.30;;;10.30;71.20;;;;;;5045592;28;20028;-79
2021/04/02 10:41:01;;;;;;;9.27;1.77;;;10.50;70.70;;;;;;5071345;28;20495;-79
2021/04/02 10:43:27;;;;;;;4.50;1.63;;;10.50;70.00;;;;;;5074641;28;20033;-78
2021/04/02 10:45:53;;;;;;;8.32;2.17;;;10.60;69.10;;;;;;5067082;28;20021;-79
2021/04/02 10:48:19;;;;;;;7.97;1.85;;;10.70;68.30;;;;;;5072683;28;20031;-79
2021/04/02 10:50:47;;;;;;;8.95;2.30;;;10.70;67.90;;;;;;5071704;28;20389;-80
2021/04/02 10:53:14;;;;;;;8.25;1.63;;;10.70;67.40;;;;;;5047950;28;20029;-79
2021/04/02 10:55:40;;;;;;;6.93;1.95;;;10.80;68.20;;;;;;5070557;28;20451;-79
2021/04/02 10:58:06;;;;;;;9.05;1.83;;;10.80;68.50;;;;;;5068811;28;20017;-79
2021/04/02 11:00:33;;;;;;;9.60;2.30;;;10.90;66.70;;;;;;5051206;28;20118;-78
2021/04/02 11:02:59;;;;;;;10.18;2.33;;;10.90;67.20;;;;;;5063884;28;20028;-79
2021/04/02 11:05:25;;;;;;;8.23;1.70;;;11.00;67.20;;;;;;5070967;28;20044;-78
2021/04/02 11:07:50;;;;;;;8.32;1.60;;;11.10;67.20;;;;;;5071094;28;20078;-78
2021/04/02 11:10:16;;;;;;;7.97;1.80;;;11.10;67.00;;;;;;5037454;28;20024;-79
2021/04/02 11:12:42;;;;;;;7.10;1.48;;;11.10;67.00;;;;;;5066376;28;20074;-79
2021/04/02 11:15:13;;;;;;;5.38;1.83;;;11.20;67.80;;;;;;5069180;28;20021;-78
2021/04/02 11:17:43;;;;;;;5.10;1.13;;;11.20;67.60;;;;;;5069779;28;20029;-78
2021/04/02 11:20:10;;;;;;;4.68;1.45;;;11.30;66.80;;;;;;5054027;28;20025;-79
2021/04/02 11:22:39;;;;;;;6.80;1.42;;;11.50;66.90;;;;;;5060089;28;20385;-78
2021/04/02 11:25:08;;;;;;;8.30;1.80;;;11.50;66.10;;;;;;5060811;28;20036;-80
2021/04/02 11:27:34;;;;;;;8.98;1.75;;;11.60;64.70;;;;;;5065622;28;20016;-79
2021/04/02 11:30:00;;;;;;;8.63;1.55;;;11.60;63.90;;;;;;5068348;28;20025;-79
2021/04/02 11:32:26;;;;;;;6.47;1.83;;;11.60;63.40;;;;;;5067935;28;20031;-79
2021/04/02 11:34:52;;;;;;;7.78;1.58;;;11.60;63.20;;;;;;5049358;28;20040;-78
2021/04/02 11:37:18;;;;;;;10.00;2.17;;;11.60;64.10;;;;;;5067743;28;20029;-78
2021/04/02 11:39:45;;;;;;;7.47;1.60;;;11.70;64.10;;;;;;5067012;28;20528;-78
2021/04/02 11:42:10;;;;;;;6.40;1.63;;;11.70;63.30;;;;;;5063400;28;20029;-80
2021/04/02 11:44:36;;;;;;;6.63;1.50;;;11.80;64.70;;;;;;5064493;28;20081;-79
2021/04/02 11:47:03;;;;;;;4.10;1.65;;;11.80;64.80;;;;;;5049844;28;20107;-79
2021/04/02 11:49:28;;;;;;;7.60;1.85;;;11.90;64.80;;;;;;5063842;28;20029;-78
2021/04/02 11:51:55;;;;;;;10.63;1.90;;;11.90;63.50;;;;;;5033089;28;20036;-78
2021/04/02 11:54:24;;;;;;;5.43;1.40;;;12.00;62.50;;;;;;5043049;28;20246;-80
2021/04/02 11:56:50;;;;;;;8.35;2.00;;;12.00;63.20;;;;;;5061941;28;20037;-80
2021/04/02 11:59:16;;;;;;;6.13;1.63;;;12.10;62.90;;;;;;5046862;28;20029;-81
2021/04/02 12:01:42;;;;;;;6.18;1.50;;;12.20;61.60;;;;;;5057954;28;20035;-81
2021/04/02 12:04:10;;;;;;;8.98;2.00;;;12.40;63.00;;;;;;5062594;28;20084;-79
2021/04/02 12:06:36;;;;;;;10.23;1.80;;;12.50;61.10;;;;;;5062995;28;20435;-79
2021/04/02 12:09:03;;;;;;;11.15;1.60;;;12.50;60.70;;;;;;5052789;28;20468;-79
2021/04/02 12:11:29;;;;;;;7.18;1.73;;;12.60;60.60;;;;;;5056051;28;20044;-79
2021/04/02 12:13:55;;;;;;;7.97;1.60;;;12.70;61.30;;;;;;5050041;28;20029;-81
2021/04/02 12:16:21;;;;;;;11.30;2.03;;;12.70;59.60;;;;;;5069551;28;20067;-78
2021/04/02 12:18:46;;;;;;;9.48;1.55;;;12.70;59.30;;;;;;5064731;28;20053;-80
2021/04/02 12:21:15;;;;;;;8.02;1.95;;;12.70;60.60;;;;;;5061892;28;20376;-80
2021/04/02 12:23:41;;;;;;;9.05;1.75;;;12.70;60.40;;;;;;5063917;28;20032;-82
2021/04/02 12:26:06;;;;;;;10.45;2.00;;;12.70;60.90;;;;;;5069253;28;20159;-80
2021/04/02 12:28:32;;;;;;;11.70;1.88;;;12.70;60.80;;;;;;5071283;28;20028;-79
2021/04/02 12:31:01;;;;;;;7.35;1.80;;;12.70;61.30;;;;;;5056221;28;20033;-79
2021/04/02 12:33:27;;;;;;;8.40;1.90;;;12.70;59.70;;;;;;5073205;28;20477;-80
2021/04/02 12:35:52;;;;;;;8.32;2.53;;;12.60;60.10;;;;;;5063468;28;20025;-80
2021/04/02 12:38:18;;;;;;;7.22;1.42;;;12.60;59.80;;;;;;5056225;28;20047;-80
2021/04/02 12:40:44;;;;;;;12.38;2.03;;;12.50;59.50;;;;;;5086933;28;20033;-81
2021/04/02 12:43:09;;;;;;;7.80;1.85;;;12.50;60.10;;;;;;5066479;28;20044;-81
2021/04/02 12:45:35;;;;;;;8.73;2.22;;;12.50;60.90;;;;;;5058745;28;20037;-78
2021/04/02 12:48:01;;;;;;;8.25;2.03;;;12.60;61.90;;;;;;5083738;28;20079;-80
2021/04/02 12:50:27;;;;;;;6.15;1.42;;;12.60;61.30;;;;;;5090463;28;20059;-81
2021/04/02 12:52:53;;;;;;;6.82;1.40;;;12.60;61.20;;;;;;5069392;28;20033;-79
2021/04/02 12:55:22;;;;;;;13.43;1.88;;;12.60;61.80;;;;;;5066097;28;20036;-80
2021/04/02 12:57:48;;;;;;;6.13;1.33;;;12.70;62.60;;;;;;5060996;28;20377;-80
2021/04/02 13:00:17;;;;;;;6.63;1.70;;;12.70;61.80;;;;;;5024806;28;20021;-79
2021/04/02 13:02:43;;;;;;;9.00;1.90;;;12.70;61.20;;;;;;5056308;28;20025;-79